createdAt,value
2023-04-03T00:01:20.721Z,2.25
2023-04-03T00:03:48.818Z,5.07
2023-04-03T00:06:17.286Z,4.13
2023-04-03T00:08:45.698Z,2.75
2023-04-03T00:11:14.108Z,3.90
2023-04-03T00:13:43.298Z,5.85
2023-04-03T00:16:13.850Z,4.97
2023-04-03T00:18:41.999Z,2.97
2023-04-03T00:21:12.072Z,3.75
2023-04-03T00:23:40.224Z,4.47
2023-04-03T00:26:08.500Z,4.57
2023-04-03T00:28:36.858Z,2.10
2023-04-03T00:31:05.335Z,3.97
2023-04-03T00:33:34.768Z,3.10
2023-04-03T00:36:08.768Z,3.17
2023-04-03T00:38:36.976Z,3.25
2023-04-03T00:41:05.576Z,4.88
2023-04-03T00:43:34.162Z,4.25
2023-04-03T00:46:02.813Z,3.58
2023-04-03T00:48:35.609Z,5.80
2023-04-03T00:51:05.804Z,3.33
2023-04-03T00:53:37.849Z,3.80
2023-04-03T00:56:10.334Z,4.80
2023-04-03T00:58:44.710Z,6.32
2023-04-03T01:01:16.109Z,5.45
2023-04-03T01:03:45.971Z,5.50
2023-04-03T01:06:18.232Z,4.32
2023-04-03T01:08:51.665Z,2.70
2023-04-03T01:11:21.986Z,5.30
2023-04-03T01:13:51.338Z,4.28
2023-04-03T01:16:19.855Z,5.75
2023-04-03T01:18:50.516Z,4.80
2023-04-03T01:21:53.675Z,4.90
2023-04-03T01:24:34.301Z,3.90
2023-04-03T01:27:07.903Z,7.72
2023-04-03T01:29:36.293Z,4.70
2023-04-03T01:32:06.118Z,7.68
2023-04-03T01:34:34.665Z,3.88
2023-04-03T01:37:03.289Z,4.00
2023-04-03T01:39:31.352Z,5.63
2023-04-03T01:42:00.250Z,4.85
2023-04-03T01:44:32.978Z,9.07
2023-04-03T01:47:02.032Z,4.78
2023-04-03T01:49:32.407Z,4.70
2023-04-03T01:52:00.717Z,6.65
2023-04-03T01:54:28.916Z,3.55
2023-04-03T01:56:57.036Z,8.18
2023-04-03T01:59:25.305Z,6.30
2023-04-03T02:01:54.344Z,5.30
2023-04-03T02:04:22.397Z,6.00
2023-04-03T02:06:51.927Z,4.95
2023-04-03T02:09:19.981Z,6.32
2023-04-03T02:11:48.083Z,7.45
2023-04-03T02:14:16.238Z,4.63
2023-04-03T02:16:44.714Z,4.60
2023-04-03T02:19:12.815Z,8.88
2023-04-03T02:21:41.577Z,5.20
2023-04-03T02:24:11.241Z,4.03
2023-04-03T02:26:39.313Z,6.30
2023-04-03T02:29:07.534Z,5.28
2023-04-03T02:31:37.259Z,6.18
2023-04-03T02:34:06.532Z,7.57
2023-04-03T02:36:36.552Z,5.30
2023-04-03T02:39:07.911Z,5.63
2023-04-03T02:41:38.449Z,6.22
2023-04-03T02:44:13.844Z,5.43
2023-04-03T02:46:41.987Z,7.53
2023-04-03T02:49:10.055Z,5.15
2023-04-03T02:51:38.650Z,6.82
2023-04-03T02:54:06.934Z,6.85
2023-04-03T02:56:39.400Z,7.00
2023-04-03T02:59:08.037Z,5.65
2023-04-03T03:01:38.492Z,4.55
2023-04-03T03:04:06.696Z,6.35
2023-04-03T03:06:34.720Z,6.63
2023-04-03T03:09:03.010Z,7.43
2023-04-03T03:11:31.412Z,6.13
2023-04-03T03:14:00.867Z,5.47
2023-04-03T03:16:29.082Z,6.78
2023-04-03T03:18:59.066Z,5.70
2023-04-03T03:21:27.614Z,5.65
2023-04-03T03:23:55.755Z,6.35
2023-04-03T03:26:24.653Z,6.22
2023-04-03T03:28:52.908Z,9.43
2023-04-03T03:31:22.377Z,7.70
2023-04-03T03:33:51.002Z,6.65
2023-04-03T03:36:19.102Z,4.70
2023-04-03T03:38:47.220Z,6.22
2023-04-03T03:41:15.508Z,6.75
2023-04-03T03:43:45.661Z,7.40
2023-04-03T03:46:16.049Z,7.68
2023-04-03T03:48:45.845Z,6.63
2023-04-03T03:51:13.964Z,3.67
2023-04-03T03:53:42.292Z,7.45
2023-04-03T03:56:15.389Z,6.05
2023-04-03T03:58:44.266Z,8.20
2023-04-03T04:01:12.441Z,8.65
2023-04-03T04:03:46.627Z,3.42
2023-04-03T04:06:19.268Z,6.05
2023-04-03T04:08:47.942Z,6.03
2023-04-03T04:11:16.884Z,6.85
2023-04-03T04:13:47.364Z,5.15
2023-04-03T04:16:17.782Z,5.40
2023-04-03T04:18:47.298Z,8.45
2023-04-03T04:21:15.758Z,5.85
2023-04-03T04:23:44.636Z,5.07
2023-04-03T04:26:12.886Z,7.32
2023-04-03T04:28:42.048Z,4.93
2023-04-03T04:31:10.505Z,7.00
2023-04-03T04:33:38.728Z,6.85
2023-04-03T04:36:10.567Z,8.32
2023-04-03T04:38:39.689Z,8.43
2023-04-03T04:41:08.465Z,9.18
2023-04-03T04:43:37.549Z,8.57
2023-04-03T04:46:08.379Z,11.68
2023-04-03T04:48:41.881Z,6.20
2023-04-03T04:51:12.777Z,4.55
2023-04-03T04:53:41.403Z,7.75
2023-04-03T04:56:11.756Z,6.55
2023-04-03T04:58:41.345Z,4.10
2023-04-03T05:01:12.065Z,9.80
2023-04-03T05:03:49.798Z,5.05
2023-04-03T05:06:20.642Z,8.43
2023-04-03T05:08:49.277Z,9.15
2023-04-03T05:11:18.614Z,5.10
2023-04-03T05:13:49.248Z,6.95
2023-04-03T05:16:17.707Z,6.45
2023-04-03T05:18:46.194Z,4.95
2023-04-03T05:21:22.788Z,3.42
2023-04-03T05:23:52.837Z,7.20
2023-04-03T05:26:22.015Z,4.63
2023-04-03T05:28:51.837Z,10.30
2023-04-03T05:31:20.985Z,7.35
2023-04-03T05:33:49.541Z,7.32
2023-04-03T05:36:21.454Z,7.45
2023-04-03T05:38:57.091Z,8.70
2023-04-03T05:41:26.120Z,6.05
2023-04-03T05:43:54.186Z,7.65
2023-04-03T05:46:25.010Z,7.72
2023-04-03T05:48:57.043Z,6.82
2023-04-03T05:51:34.058Z,6.82
2023-04-03T05:54:13.811Z,5.47
2023-04-03T05:56:42.612Z,5.30
2023-04-03T05:59:11.028Z,6.65
2023-04-03T06:01:39.814Z,4.95
2023-04-03T06:04:10.015Z,7.13
2023-04-03T06:06:49.378Z,6.15
2023-04-03T06:09:18.269Z,7.10
2023-04-03T06:11:46.928Z,10.38
2023-04-03T06:14:16.332Z,4.60
2023-04-03T06:16:44.641Z,4.80
2023-04-03T06:19:14.002Z,8.55
2023-04-03T06:21:49.316Z,7.70
2023-04-03T06:24:18.861Z,5.88
2023-04-03T06:26:47.172Z,6.55
2023-04-03T06:29:15.655Z,6.68
2023-04-03T06:31:43.725Z,5.00
2023-04-03T06:34:12.804Z,4.03
2023-04-03T06:36:41.503Z,6.07
2023-04-03T06:39:13.829Z,8.52
2023-04-03T06:41:42.084Z,5.70
2023-04-03T06:44:12.155Z,5.68
2023-04-03T06:46:41.279Z,6.60
2023-04-03T06:49:09.736Z,7.00
2023-04-03T06:51:38.986Z,5.00
2023-04-03T06:54:09.186Z,8.23
2023-04-03T06:56:39.136Z,6.13
2023-04-03T06:59:07.215Z,6.35
2023-04-03T07:01:38.072Z,6.07
2023-04-03T07:04:06.770Z,4.72
2023-04-03T07:06:35.133Z,7.25
2023-04-03T07:09:04.533Z,5.07
2023-04-03T07:11:32.686Z,5.60
2023-04-03T07:14:02.206Z,4.90
2023-04-03T07:16:31.966Z,3.67
2023-04-03T07:19:00.535Z,4.35
2023-04-03T07:21:28.897Z,5.13
2023-04-03T07:23:57.289Z,7.38
2023-04-03T07:26:26.642Z,8.45
2023-04-03T07:28:54.718Z,4.65
2023-04-03T07:31:24.261Z,4.57
2023-04-03T07:33:52.940Z,6.03
2023-04-03T07:36:23.342Z,4.30
2023-04-03T07:38:51.562Z,3.50
2023-04-03T07:41:23.652Z,6.63
2023-04-03T07:43:51.839Z,3.25
2023-04-03T07:46:20.242Z,3.78
2023-04-03T07:48:49.762Z,4.07
2023-04-03T07:51:18.225Z,6.90
2023-04-03T07:53:46.470Z,3.03
2023-04-03T07:56:14.556Z,4.75
2023-04-03T07:58:42.835Z,4.80
2023-04-03T08:01:12.405Z,3.00
2023-04-03T08:03:41.015Z,3.55
2023-04-03T08:06:15.656Z,4.43
2023-04-03T08:08:44.960Z,3.38
2023-04-03T08:11:14.063Z,3.83
2023-04-03T08:13:42.503Z,5.25
2023-04-03T08:16:12.798Z,3.15
2023-04-03T08:18:41.362Z,3.17
2023-04-03T08:21:12.230Z,2.17
2023-04-03T08:23:42.236Z,1.55
2023-04-03T08:26:11.894Z,2.53
2023-04-03T08:28:40.633Z,2.90
2023-04-03T08:31:12.196Z,2.45
2023-04-03T08:33:41.228Z,4.28
2023-04-03T08:36:19.986Z,4.15
2023-04-03T08:38:48.152Z,1.67
2023-04-03T08:41:21.460Z,3.05
2023-04-03T08:44:00.343Z,3.93
2023-04-03T08:46:40.055Z,4.00
2023-04-03T08:49:18.623Z,4.47
2023-04-03T08:51:51.933Z,2.15
2023-04-03T08:54:27.826Z,3.15
2023-04-03T08:56:57.170Z,3.03
2023-04-03T08:59:31.471Z,2.72
2023-04-03T09:02:03.402Z,3.58
2023-04-03T09:04:34.491Z,1.83
2023-04-03T09:07:09.444Z,3.17
2023-04-03T09:09:42.097Z,2.70
2023-04-03T09:12:19.322Z,1.90
2023-04-03T09:14:58.042Z,2.13
2023-04-03T09:17:39.352Z,2.05
2023-04-03T09:20:20.951Z,2.63
2023-04-03T09:22:53.958Z,3.33
2023-04-03T09:25:24.852Z,2.58
2023-04-03T09:27:54.693Z,2.33
2023-04-03T09:30:24.731Z,1.30
2023-04-03T09:32:55.855Z,2.35
2023-04-03T09:35:36.390Z,2.15
2023-04-03T09:38:22.162Z,2.20
2023-04-03T09:40:53.718Z,2.88
2023-04-03T09:43:28.344Z,2.10
2023-04-03T09:45:57.681Z,2.97
2023-04-03T09:48:27.505Z,1.88
2023-04-03T09:51:00.330Z,2.00
2023-04-03T09:53:37.800Z,2.78
2023-04-03T09:56:22.868Z,1.25
2023-04-03T09:58:52.968Z,2.20
2023-04-03T10:01:28.595Z,2.88
2023-04-03T10:04:08.769Z,3.20
2023-04-03T10:06:43.814Z,8.15
2023-04-03T10:09:22.642Z,1.92
2023-04-03T10:12:06.622Z,1.55
2023-04-03T10:14:35.559Z,2.42
2023-04-03T10:17:25.621Z,1.58
2023-04-03T10:19:58.491Z,1.33
2023-04-03T10:22:39.363Z,1.10
2023-04-03T10:25:16.991Z,3.05
2023-04-03T10:27:55.887Z,1.50
2023-04-03T10:30:34.667Z,1.25
2023-04-03T10:33:37.977Z,2.20
2023-04-03T10:36:19.642Z,1.02
2023-04-03T10:38:58.017Z,2.08
2023-04-03T10:41:36.446Z,2.13
2023-04-03T10:44:16.930Z,3.05
2023-04-03T10:46:49.725Z,1.70
2023-04-03T10:52:08.199Z,3.28
2023-04-03T10:54:40.894Z,2.65
2023-04-03T10:57:14.006Z,1.80
2023-04-03T10:59:46.449Z,2.17
2023-04-03T11:02:24.019Z,1.17
2023-04-03T11:04:55.761Z,1.98
2023-04-03T11:07:27.770Z,1.67
2023-04-03T11:10:00.798Z,1.55
2023-04-03T11:15:05.868Z,1.50
2023-04-03T11:17:39.276Z,1.60
2023-04-03T11:20:17.667Z,1.83
2023-04-03T11:22:49.204Z,1.35
2023-04-03T11:25:23.357Z,2.75
2023-04-03T11:27:58.661Z,1.20
2023-04-03T11:30:32.550Z,1.45
2023-04-03T11:33:30.560Z,1.58
2023-04-03T11:36:07.345Z,2.20
2023-04-03T11:38:46.707Z,1.65
2023-04-03T11:41:29.953Z,1.52
2023-04-03T11:44:02.578Z,2.40
2023-04-03T11:46:57.003Z,1.45
2023-04-03T11:49:55.089Z,1.27
2023-04-03T11:52:57.041Z,1.10
2023-04-03T11:55:47.656Z,2.22
2023-04-03T11:58:18.374Z,2.28
2023-04-03T12:00:54.784Z,3.83
2023-04-03T12:04:01.980Z,1.75
2023-04-03T12:07:11.786Z,1.80
2023-04-03T12:10:31.006Z,1.55
2023-04-03T12:13:04.764Z,1.23
2023-04-03T12:18:56.434Z,1.67
2023-04-03T12:21:25.812Z,2.40
2023-04-03T12:24:06.867Z,1.92
2023-04-03T12:26:48.740Z,0.80
2023-04-03T12:29:22.450Z,1.40
2023-04-03T12:32:08.456Z,1.35
2023-04-03T12:34:57.972Z,1.88
2023-04-03T12:37:45.295Z,2.78
2023-04-03T12:40:22.846Z,2.55
2023-04-03T12:43:11.166Z,2.80
2023-04-03T12:45:48.624Z,1.23
2023-04-03T12:48:19.332Z,2.03
2023-04-03T12:50:49.838Z,3.10
2023-04-03T12:53:21.488Z,2.03
2023-04-03T12:55:49.581Z,1.40
2023-04-03T12:58:23.522Z,1.45
2023-04-03T13:01:02.865Z,1.42
2023-04-03T13:03:32.335Z,1.75
2023-04-03T13:06:04.741Z,1.10
2023-04-03T13:08:33.445Z,1.67
2023-04-03T13:11:05.053Z,1.38
2023-04-03T13:13:33.693Z,0.80
2023-04-03T13:16:02.016Z,2.22
2023-04-03T13:18:33.234Z,1.63
2023-04-03T13:21:07.048Z,4.00
2023-04-03T13:23:38.185Z,1.95
2023-04-03T13:26:07.552Z,1.10
2023-04-03T13:28:36.603Z,2.88
2023-04-03T13:31:11.443Z,1.75
2023-04-03T13:33:39.990Z,3.80
2023-04-03T13:36:19.393Z,2.45
2023-04-03T13:38:47.756Z,1.30
2023-04-03T13:41:34.336Z,1.77
2023-04-03T13:44:19.004Z,2.53
2023-04-03T13:46:47.434Z,1.65
2023-04-03T13:49:33.293Z,2.33
2023-04-03T13:52:21.134Z,3.22
2023-04-03T13:54:53.661Z,2.50
2023-04-03T13:57:22.211Z,3.50
2023-04-03T13:59:50.876Z,2.65
2023-04-03T14:02:22.895Z,2.55
2023-04-03T14:04:57.249Z,2.60
2023-04-03T14:07:27.394Z,2.17
2023-04-03T14:09:56.002Z,2.20
2023-04-03T14:12:32.387Z,4.47
2023-04-03T14:15:02.690Z,3.15
2023-04-03T14:17:33.442Z,2.63
2023-04-03T14:20:01.950Z,2.45
2023-04-03T14:22:34.803Z,2.53
2023-04-03T14:25:03.174Z,1.95
2023-04-03T14:27:35.402Z,2.42
2023-04-03T14:30:04.978Z,2.72
2023-04-03T14:32:33.235Z,2.40
2023-04-03T14:35:01.834Z,3.75
2023-04-03T14:37:32.717Z,5.43
2023-04-03T14:40:02.534Z,3.58
2023-04-03T14:42:33.321Z,3.67
2023-04-03T14:45:03.602Z,2.50
2023-04-03T14:47:32.775Z,2.85
2023-04-03T14:50:02.162Z,2.67
2023-04-03T14:52:35.120Z,3.90
2023-04-03T14:55:04.895Z,4.93
2023-04-03T14:57:33.684Z,3.40
2023-04-03T15:00:03.682Z,3.00
2023-04-03T15:02:34.701Z,2.60
2023-04-03T15:05:05.076Z,3.60
2023-04-03T15:07:37.248Z,3.95
2023-04-03T15:10:17.288Z,3.83
2023-04-03T15:12:46.342Z,1.75
2023-04-03T15:15:15.301Z,1.52
2023-04-03T15:17:44.249Z,1.88
2023-04-03T15:20:15.619Z,4.90
2023-04-03T15:22:45.306Z,2.78
2023-04-03T15:25:13.663Z,2.13
2023-04-03T15:27:42.543Z,6.57
2023-04-03T15:30:16.719Z,2.67
2023-04-03T15:32:44.940Z,3.67
2023-04-03T15:35:13.092Z,2.83
2023-04-03T15:37:41.571Z,3.97
2023-04-03T15:40:11.791Z,4.88
2023-04-03T15:42:40.939Z,2.53
2023-04-03T15:45:10.578Z,3.72
2023-04-03T15:47:38.936Z,3.03
2023-04-03T15:50:08.974Z,3.30
2023-04-03T15:52:37.486Z,1.85
2023-04-03T15:55:06.982Z,2.08
2023-04-03T16:00:10.891Z,3.53
2023-04-03T16:02:38.992Z,5.78
2023-04-03T16:05:08.165Z,4.57
2023-04-03T16:07:36.649Z,3.35
2023-04-03T16:10:05.198Z,3.05
2023-04-03T16:12:33.321Z,4.35
2023-04-03T16:15:03.080Z,3.45
2023-04-03T16:17:31.941Z,3.35
2023-04-03T16:20:00.685Z,5.07
2023-04-03T16:22:30.542Z,2.88
2023-04-03T16:24:58.598Z,5.40
2023-04-03T16:27:28.456Z,2.45
2023-04-03T16:29:56.787Z,3.17
2023-04-03T16:32:28.589Z,2.42
2023-04-03T16:34:57.010Z,4.40
2023-04-03T16:37:26.550Z,3.50
2023-04-03T16:39:55.612Z,3.22
2023-04-03T16:42:23.623Z,4.93
2023-04-03T16:44:53.605Z,3.90
2023-04-03T16:47:21.618Z,10.30
2023-04-03T16:49:51.239Z,4.57
2023-04-03T16:52:19.484Z,3.90
2023-04-03T16:54:47.914Z,4.10
2023-04-03T16:57:15.973Z,4.72
2023-04-03T16:59:44.143Z,4.25
2023-04-03T17:02:12.348Z,7.25
2023-04-03T17:04:40.729Z,3.80
2023-04-03T17:07:10.250Z,6.30
2023-04-03T17:09:38.961Z,4.78
2023-04-03T17:12:07.236Z,4.63
2023-04-03T17:14:35.526Z,3.25
2023-04-03T17:17:04.494Z,5.10
2023-04-03T17:19:32.823Z,3.22
2023-04-03T17:22:01.230Z,3.70
2023-04-03T17:24:32.020Z,3.25
2023-04-03T17:27:00.319Z,3.25
2023-04-03T17:29:28.515Z,5.60
2023-04-03T17:31:59.677Z,3.17
2023-04-03T17:34:27.870Z,4.32
2023-04-03T17:36:56.100Z,2.30
2023-04-03T17:39:24.302Z,5.03
2023-04-03T17:41:54.950Z,3.05
2023-04-03T17:44:23.842Z,7.70
2023-04-03T17:46:53.949Z,3.35
2023-04-03T17:49:22.435Z,10.60
2023-04-03T17:51:50.780Z,8.73
2023-04-03T17:54:18.897Z,4.57
2023-04-03T17:56:48.337Z,4.72
2023-04-03T17:59:19.266Z,2.80
2023-04-03T18:01:48.079Z,1.80
2023-04-03T18:04:16.694Z,3.42
2023-04-03T18:06:48.124Z,2.67
2023-04-03T18:09:19.516Z,3.00
2023-04-03T18:11:49.186Z,4.70
2023-04-03T18:14:20.800Z,2.65
2023-04-03T18:16:48.976Z,5.97
2023-04-03T18:19:23.383Z,3.97
2023-04-03T18:21:52.439Z,2.85
2023-04-03T18:24:23.160Z,4.13
2023-04-03T18:26:56.278Z,3.70
2023-04-03T18:29:26.203Z,4.18
2023-04-03T18:31:56.770Z,4.18
2023-04-03T18:34:24.959Z,3.80
2023-04-03T18:36:53.630Z,3.22
2023-04-03T18:39:23.346Z,3.40
2023-04-03T18:41:53.836Z,3.00
2023-04-03T18:44:26.684Z,5.88
2023-04-03T18:46:56.681Z,3.47
2023-04-03T18:49:25.493Z,4.70
2023-04-03T18:51:53.738Z,4.75
2023-04-03T18:54:21.879Z,4.15
2023-04-03T18:56:50.046Z,5.40
2023-04-03T18:59:18.331Z,4.43
2023-04-03T19:01:47.786Z,3.22
2023-04-03T19:04:18.014Z,3.25
2023-04-03T19:06:46.322Z,3.17
2023-04-03T19:09:14.611Z,4.32
2023-04-03T19:11:42.847Z,4.28
2023-04-03T19:14:16.822Z,2.35
2023-04-03T19:16:47.077Z,3.67
2023-04-03T19:19:15.404Z,3.05
2023-04-03T19:21:43.566Z,2.50
2023-04-03T19:24:13.366Z,3.20
2023-04-03T19:26:42.054Z,6.18
2023-04-03T19:29:10.349Z,3.65
2023-04-03T19:31:39.179Z,3.53
2023-04-03T19:34:09.031Z,3.38
2023-04-03T19:36:37.699Z,3.25
2023-04-03T19:39:06.881Z,4.63
2023-04-03T19:41:38.722Z,3.33
2023-04-03T19:44:08.217Z,4.00
2023-04-03T19:46:37.272Z,5.57
2023-04-03T19:49:06.061Z,4.38
2023-04-03T19:51:35.875Z,4.53
2023-04-03T19:54:05.934Z,4.05
2023-04-03T19:56:34.006Z,4.63
2023-04-03T19:59:02.057Z,2.75
2023-04-03T20:01:30.954Z,3.50
2023-04-03T20:03:59.321Z,4.45
2023-04-03T20:06:27.494Z,3.67
2023-04-03T20:08:56.915Z,4.15
2023-04-03T20:11:26.576Z,3.88
2023-04-03T20:13:56.361Z,4.30
2023-04-03T20:16:28.177Z,2.97
2023-04-03T20:18:56.817Z,5.93
2023-04-03T20:21:29.851Z,3.03
2023-04-03T20:23:59.738Z,7.40
2023-04-03T20:26:29.694Z,7.30
2023-04-03T20:29:00.078Z,2.28
2023-04-03T20:31:29.986Z,2.25
2023-04-03T20:33:58.138Z,5.18
2023-04-03T20:36:28.377Z,3.72
2023-04-03T20:38:57.549Z,3.40
2023-04-03T20:41:27.623Z,3.17
2023-04-03T20:43:55.727Z,2.60
2023-04-03T20:46:34.874Z,3.80
2023-04-03T20:49:11.088Z,2.55
2023-04-03T20:51:42.063Z,2.92
2023-04-03T20:54:10.582Z,2.75
2023-04-03T20:56:40.320Z,4.63
2023-04-03T20:59:09.646Z,2.40
2023-04-03T21:01:37.919Z,4.20
2023-04-03T21:04:13.276Z,3.45
2023-04-03T21:07:18.883Z,3.83
2023-04-03T21:10:24.834Z,3.00
2023-04-03T21:13:30.191Z,2.78
2023-04-03T21:16:00.236Z,3.67
2023-04-03T21:18:43.402Z,2.58
2023-04-03T21:21:20.641Z,4.43
2023-04-03T21:23:49.488Z,3.10
2023-04-03T21:26:18.331Z,5.13
2023-04-03T21:28:47.345Z,2.95
2023-04-03T21:31:15.506Z,3.75
2023-04-03T21:33:45.196Z,5.03
2023-04-03T21:36:13.488Z,4.75
2023-04-03T21:38:41.640Z,3.03
2023-04-03T21:41:09.730Z,2.85
2023-04-03T21:43:38.045Z,3.45
2023-04-03T21:46:06.548Z,5.20
2023-04-03T21:48:36.740Z,5.18
2023-04-03T21:51:07.222Z,3.90
2023-04-03T21:53:36.039Z,4.97
2023-04-03T21:56:04.160Z,4.15
2023-04-03T21:58:33.037Z,4.18
2023-04-03T22:01:09.976Z,2.65
2023-04-03T22:03:38.368Z,3.00
2023-04-03T22:06:08.278Z,2.17
2023-04-03T22:08:36.814Z,3.72
2023-04-03T22:11:06.060Z,3.97
2023-04-03T22:13:34.447Z,4.10
2023-04-03T22:16:02.742Z,3.67
2023-04-03T22:18:31.782Z,3.70
2023-04-03T22:20:59.858Z,3.35
2023-04-03T22:23:29.452Z,4.10
2023-04-03T22:26:05.350Z,2.45
2023-04-03T22:28:35.001Z,3.03
2023-04-03T22:31:03.808Z,4.72
2023-04-03T22:33:34.561Z,3.22
2023-04-03T22:36:03.026Z,4.20
2023-04-03T22:38:32.759Z,4.03
2023-04-03T22:41:02.702Z,2.78
2023-04-03T22:43:32.627Z,2.90
2023-04-03T22:46:02.207Z,2.97
2023-04-03T22:48:30.946Z,2.80
2023-04-03T22:51:00.023Z,2.75
2023-04-03T22:53:28.371Z,2.88
2023-04-03T22:55:58.733Z,3.35
2023-04-03T22:58:27.723Z,2.25
2023-04-03T23:01:06.630Z,2.85
2023-04-03T23:03:35.932Z,1.88
2023-04-03T23:06:04.483Z,2.17
2023-04-03T23:08:34.551Z,1.73
2023-04-03T23:11:04.084Z,5.38
2023-04-03T23:13:32.362Z,3.65
2023-04-03T23:16:02.423Z,3.70
2023-04-03T23:18:31.814Z,4.20
2023-04-03T23:21:01.150Z,5.07
2023-04-03T23:23:29.502Z,4.55
2023-04-03T23:25:59.364Z,2.60
2023-04-03T23:28:29.678Z,3.35
2023-04-03T23:31:01.296Z,2.20
2023-04-03T23:33:30.712Z,2.60
2023-04-03T23:35:59.379Z,2.55
2023-04-03T23:38:27.902Z,3.85
2023-04-03T23:40:55.983Z,3.78
2023-04-03T23:43:24.338Z,3.75
2023-04-03T23:45:53.771Z,3.20
2023-04-03T23:48:22.770Z,3.00
2023-04-03T23:50:50.800Z,3.03
2023-04-03T23:53:19.143Z,2.63
2023-04-03T23:55:47.218Z,5.53
2023-04-03T23:58:15.929Z,2.10
